Weather at RCAF Detachment Standoff [CLOSED]

Public forecast

Using degrees Celsius for public forecast. Weather courtesy of forecast.io.

Closest aviation weather report (METAR) to RCAF Detachment Standoff

Closest report is Lethbridge County Airport, 21.3 nm (39.5 km) ENE.

2024/05/30 04:00 (retrieved 37 minutes ago)

CYQL 300400Z 25020G28KT 60SM FEW060 FEW190 BKN270 09/M01 A2992 RMK SC1AC2CI4 SC TR LAST STFD OBS/NXT 301200Z SLP139

Closest aviation forecast (TAF) to RCAF Detachment Standoff

Forecast is more than 6 hours old.

Closest forecast is Malmstrom Air Force Base, 149.5 nm (276.9 km) SE.

2024/05/29 21:03 (retrieved 8 hours ago)

TAF KGFA 292100Z 2921/3103 27012G18KT 9999 BKN090 BKN120 QNH2991INS BECMG 3004/3005 26009KT 9999 SCT080 BKN180 QNH3002INS BECMG 3014/3015 27015G25KT 9999 SCT080 QNH3007INS BECMG 3102/3103 28009KT 9999 SCT080 QNH3006INS TX18/2922Z TN07/3012Z